Time;durP1;ratioP1;P1;durP2;ratioP2;P2;SDS_P1;SDS_P2;PMS_P1;PMS_P2;Temp;Humidity;BMP_temperature;BMP_pressure;BME280_temperature;BME280_humidity;BME280_pressure;Samples;Min_cycle;Max_cycle;Signal;HPM_P1;HPM_P2
2023/06/18 00:00:24;;;;;;;9.35;5.13;;;15.00;99.90;;;13.64;100.00;97416.56;5006525;28;20050;-74
2023/06/18 00:02:51;;;;;;;7.10;4.80;;;15.00;99.90;;;13.53;100.00;97408.53;4983427;28;20057;-75
2023/06/18 00:05:18;;;;;;;7.93;4.43;;;14.90;99.90;;;13.33;100.00;97405.28;4978875;28;20154;-75
2023/06/18 00:07:45;;;;;;;9.25;4.88;;;14.90;99.90;;;13.37;100.00;97398.97;4978962;28;20146;-75
2023/06/18 00:10:13;;;;;;;6.95;4.03;;;14.80;99.90;;;13.39;100.00;97404.09;4977319;28;20499;-74
2023/06/18 00:12:40;;;;;;;9.98;5.72;;;14.80;99.90;;;13.50;100.00;97406.06;4977836;28;20086;-75
2023/06/18 00:15:08;;;;;;;7.32;4.90;;;14.80;99.90;;;13.62;100.00;97402.78;4978466;28;20050;-75
2023/06/18 00:17:35;;;;;;;8.18;5.38;;;14.80;99.90;;;13.57;100.00;97394.34;4975837;28;20129;-75
2023/06/18 00:20:03;;;;;;;7.60;4.97;;;14.80;99.90;;;13.53;100.00;97393.72;4965507;28;20058;-75
2023/06/18 00:22:31;;;;;;;8.82;5.63;;;14.80;99.90;;;13.60;100.00;97399.41;4980698;28;20058;-76
2023/06/18 00:24:58;;;;;;;13.75;5.18;;;14.80;99.90;;;13.57;100.00;97400.44;4978625;28;20575;-75
2023/06/18 00:27:25;;;;;;;7.85;5.30;;;14.80;99.90;;;13.50;100.00;97398.25;4978730;28;20140;-75
2023/06/18 00:29:53;;;;;;;8.50;5.40;;;14.80;99.90;;;13.35;100.00;97399.97;4979247;28;20074;-75
2023/06/18 00:32:20;;;;;;;8.30;5.45;;;14.80;99.90;;;13.30;100.00;97397.63;4982359;28;20525;-75
2023/06/18 00:34:47;;;;;;;11.95;4.65;;;14.70;99.90;;;13.36;100.00;97402.50;4979784;28;20058;-75
2023/06/18 00:37:15;;;;;;;10.20;5.85;;;14.70;99.90;;;13.25;100.00;97393.56;5012009;28;20042;-75
2023/06/18 00:39:43;;;;;;;15.65;5.25;;;14.60;99.90;;;13.23;100.00;97398.88;5014652;28;20053;-75
2023/06/18 00:42:11;;;;;;;9.75;5.80;;;14.60;99.90;;;13.31;100.00;97393.25;5012315;28;20046;-75
2023/06/18 00:44:41;;;;;;;9.13;5.45;;;14.60;99.90;;;13.17;100.00;97399.22;4981745;28;20288;-76
2023/06/18 00:47:13;;;;;;;7.95;5.57;;;14.60;99.90;;;13.31;100.00;97395.84;4977912;28;20055;-75
2023/06/18 00:49:44;;;;;;;11.95;5.38;;;14.60;99.90;;;13.21;100.00;97394.69;4984896;28;20058;-76
2023/06/18 00:52:14;;;;;;;9.77;5.05;;;14.50;99.90;;;13.17;100.00;97396.59;4966209;28;20389;-76
2023/06/18 00:54:44;;;;;;;16.65;6.57;;;14.50;99.90;;;13.03;100.00;97394.75;4980323;28;20125;-76
2023/06/18 00:57:15;;;;;;;17.55;5.78;;;14.50;99.90;;;12.82;100.00;97382.91;4981285;28;20512;-76
2023/06/18 00:59:43;;;;;;;13.43;5.35;;;14.40;99.90;;;12.88;100.00;97385.19;4982132;28;20130;-78
2023/06/18 01:02:13;;;;;;;17.85;6.22;;;14.30;99.90;;;12.68;100.00;97389.72;5013730;28;20054;-76
2023/06/18 01:04:43;;;;;;;17.92;5.32;;;14.20;99.90;;;12.73;100.00;97392.91;4981573;28;20401;-77
2023/06/18 01:07:13;;;;;;;11.93;5.95;;;14.20;99.90;;;12.62;100.00;97394.44;4987265;28;20046;-76
2023/06/18 01:09:43;;;;;;;14.02;6.25;;;14.10;99.90;;;12.64;100.00;97396.03;4970982;28;20062;-76
2023/06/18 01:12:10;;;;;;;16.70;6.15;;;14.10;99.90;;;12.53;100.00;97393.97;4982334;28;20136;-76
2023/06/18 01:14:39;;;;;;;9.77;5.15;;;14.00;99.90;;;12.49;100.00;97400.28;4982570;28;20570;-76
2023/06/18 01:17:06;;;;;;;10.82;5.55;;;14.00;99.90;;;12.47;100.00;97399.50;5010551;28;20526;-76
2023/06/18 01:19:58;;;;;;;11.65;5.88;;;13.90;99.90;;;12.42;100.00;97400.69;4985431;28;20137;-78
2023/06/18 01:22:37;;;;;;;9.13;5.50;;;13.90;99.90;;;12.48;100.00;97401.22;4987233;28;20115;-76
2023/06/18 01:25:07;;;;;;;10.57;6.32;;;13.80;99.90;;;12.49;100.00;97404.63;4999041;28;20061;-77
2023/06/18 01:27:40;;;;;;;9.82;5.47;;;13.80;99.90;;;12.51;100.00;97408.00;5011836;28;20050;-75
2023/06/18 01:30:13;;;;;;;12.90;6.10;;;13.80;99.90;;;12.60;100.00;97404.91;5010449;28;20085;-76
2023/06/18 01:32:41;;;;;;;10.10;6.88;;;13.90;99.90;;;12.61;100.00;97403.13;4995959;28;20038;-77
2023/06/18 01:35:15;;;;;;;10.82;6.13;;;13.90;99.90;;;12.56;100.00;97403.38;4982679;28;20073;-76
2023/06/18 01:38:09;;;;;;;9.02;6.00;;;13.90;99.90;;;12.41;100.00;97399.03;4979188;28;20438;-77
2023/06/18 01:40:54;;;;;;;10.57;6.20;;;13.90;99.90;;;12.23;100.00;97399.06;4978932;28;20086;-77
2023/06/18 01:43:29;;;;;;;8.65;5.93;;;13.80;99.90;;;12.17;100.00;97403.72;4985175;28;20082;-76
2023/06/18 01:46:06;;;;;;;8.88;5.72;;;13.70;99.90;;;12.22;100.00;97391.31;4992961;28;20089;-76
2023/06/18 01:48:42;;;;;;;11.07;6.07;;;13.60;99.90;;;12.28;100.00;97391.84;4981994;28;20053;-76
2023/06/18 01:51:11;;;;;;;8.75;5.57;;;13.60;99.90;;;12.33;100.00;97386.38;4985977;28;20055;-76
2023/06/18 01:53:40;;;;;;;8.77;5.97;;;13.60;99.90;;;12.39;100.00;97390.44;5007807;28;20073;-77
2023/06/18 01:56:09;;;;;;;10.05;5.63;;;13.60;99.90;;;12.34;100.00;97394.13;5014653;28;20081;-76
2023/06/18 01:58:42;;;;;;;8.20;5.35;;;13.70;99.90;;;12.55;100.00;97388.69;4984281;28;20046;-77
2023/06/18 02:01:11;;;;;;;10.35;5.63;;;13.70;99.90;;;12.63;100.00;97380.47;4978072;28;20105;-76
2023/06/18 02:03:39;;;;;;;8.68;5.90;;;13.70;99.90;;;12.50;100.00;97375.09;4979324;28;20050;-77
2023/06/18 02:06:07;;;;;;;9.38;5.68;;;13.70;99.90;;;12.64;100.00;97369.97;5010850;28;20047;-76
2023/06/18 02:08:35;;;;;;;7.88;4.85;;;13.80;99.90;;;12.71;100.00;97362.69;4985231;28;20089;-77
2023/06/18 02:11:02;;;;;;;7.47;5.05;;;13.80;99.90;;;12.41;100.00;97367.78;4976897;28;20077;-77
2023/06/18 02:13:30;;;;;;;14.35;6.57;;;13.90;99.90;;;12.42;100.00;97367.69;4984393;28;20054;-76
2023/06/18 02:15:57;;;;;;;10.18;6.07;;;13.80;99.90;;;12.38;100.00;97378.34;5010783;28;20065;-76
2023/06/18 02:18:24;;;;;;;9.50;6.32;;;13.60;99.90;;;12.37;100.00;97382.72;4980855;28;20058;-76
2023/06/18 02:20:52;;;;;;;12.75;5.32;;;13.60;99.90;;;12.37;100.00;97385.31;4979217;28;20158;-76
2023/06/18 02:23:20;;;;;;;8.38;5.55;;;13.60;99.90;;;12.59;100.00;97389.34;4979252;28;20291;-76
2023/06/18 02:25:48;;;;;;;7.85;5.53;;;13.70;99.90;;;12.72;100.00;97385.19;4981699;28;20093;-77
2023/06/18 02:28:15;;;;;;;9.13;5.88;;;13.80;99.90;;;12.69;100.00;97385.34;4979644;28;20108;-76
2023/06/18 02:30:43;;;;;;;8.10;5.53;;;13.80;99.90;;;12.59;100.00;97394.56;4982150;28;20431;-77
2023/06/18 02:33:10;;;;;;;7.90;5.32;;;13.80;99.90;;;12.44;100.00;97389.28;5010461;28;20061;-76
2023/06/18 02:35:38;;;;;;;8.70;5.53;;;13.70;99.90;;;12.56;100.00;97386.00;5001277;28;20042;-76
2023/06/18 02:38:05;;;;;;;10.00;5.95;;;13.80;99.90;;;12.50;100.00;97386.34;5007467;28;20500;-77
2023/06/18 02:40:33;;;;;;;8.18;5.38;;;13.80;99.90;;;12.54;100.00;97384.41;4982266;28;20565;-76
2023/06/18 02:43:05;;;;;;;9.52;6.07;;;13.70;99.90;;;12.52;100.00;97376.69;4978464;28;20204;-76
2023/06/18 02:45:33;;;;;;;7.88;5.15;;;13.80;99.90;;;12.61;100.00;97371.91;4979211;28;20062;-76
2023/06/18 02:48:01;;;;;;;9.90;5.43;;;13.80;99.90;;;12.55;100.00;97373.91;4981982;28;20128;-76
2023/06/18 02:50:28;;;;;;;8.30;5.28;;;13.80;99.90;;;12.45;100.00;97377.94;4987233;28;20054;-76
2023/06/18 02:52:56;;;;;;;7.97;5.55;;;13.80;99.90;;;12.55;100.00;97375.69;5009712;28;20101;-76
2023/06/18 02:55:23;;;;;;;7.82;5.75;;;13.80;99.90;;;12.54;100.00;97376.59;4982790;28;20057;-77
2023/06/18 02:57:51;;;;;;;9.95;6.07;;;13.70;99.90;;;12.32;100.00;97377.75;4977964;28;20050;-75
2023/06/18 03:00:19;;;;;;;11.27;5.95;;;13.70;99.90;;;12.27;100.00;97384.97;4993124;28;20102;-76
2023/06/18 03:02:48;;;;;;;8.45;5.38;;;13.60;99.90;;;12.24;100.00;97384.28;4980676;28;20058;-76
2023/06/18 03:05:18;;;;;;;10.18;5.63;;;13.50;99.90;;;12.07;100.00;97392.97;4981900;28;20495;-76
2023/06/18 03:07:45;;;;;;;7.88;5.40;;;13.50;99.90;;;11.87;100.00;97404.34;5010108;28;20042;-76
2023/06/18 03:10:12;;;;;;;9.93;6.30;;;13.30;99.90;;;12.13;100.00;97398.69;4976323;28;20046;-75
2023/06/18 03:12:39;;;;;;;9.20;5.95;;;13.40;99.90;;;12.01;100.00;97398.47;4999947;28;20050;-75
2023/06/18 03:15:07;;;;;;;8.93;6.15;;;13.30;99.90;;;11.65;100.00;97397.59;4984911;28;20098;-75
2023/06/18 03:17:34;;;;;;;10.93;6.20;;;13.20;99.90;;;11.55;100.00;97404.19;4977714;28;20051;-75
2023/06/18 03:20:03;;;;;;;10.27;6.05;;;13.10;99.90;;;11.72;100.00;97408.53;4981252;28;20050;-75
2023/06/18 03:22:30;;;;;;;11.07;6.32;;;13.10;99.90;;;11.78;100.00;97404.81;5014135;28;20062;-75
2023/06/18 03:25:00;;;;;;;10.75;5.78;;;13.10;99.90;;;11.91;100.00;97406.75;4979142;28;20794;-75
2023/06/18 03:27:27;;;;;;;9.50;6.07;;;13.20;99.90;;;11.94;100.00;97403.16;4976434;28;20051;-75
2023/06/18 03:29:55;;;;;;;8.68;6.05;;;13.20;99.90;;;11.92;100.00;97410.19;4979634;28;20510;-75
2023/06/18 03:32:23;;;;;;;8.65;5.07;;;13.20;99.90;;;12.06;100.00;97399.06;4978804;28;20050;-75
2023/06/18 03:34:50;;;;;;;9.10;5.38;;;13.20;99.90;;;12.10;100.00;97398.84;4975482;28;20098;-75
2023/06/18 03:37:18;;;;;;;10.32;5.63;;;13.30;99.90;;;12.02;100.00;97394.94;5009670;28;20101;-75
2023/06/18 03:39:45;;;;;;;9.57;5.47;;;13.30;99.90;;;12.17;100.00;97391.56;4981777;28;20077;-75
2023/06/18 03:42:12;;;;;;;8.65;5.93;;;13.30;99.90;;;12.05;100.00;97382.63;4976169;28;20055;-76
2023/06/18 03:44:39;;;;;;;8.20;5.53;;;13.30;99.90;;;12.10;100.00;97388.44;4977225;28;20093;-75
2023/06/18 03:47:07;;;;;;;10.35;6.43;;;13.30;99.90;;;12.32;100.00;97384.72;4979243;28;20042;-75
2023/06/18 03:49:35;;;;;;;9.02;5.90;;;13.30;99.90;;;12.22;100.00;97389.53;4977620;28;20066;-75
2023/06/18 03:52:02;;;;;;;11.10;6.20;;;13.30;99.90;;;12.27;100.00;97390.16;4977970;28;20049;-75
2023/06/18 03:54:31;;;;;;;8.82;6.63;;;13.30;99.90;;;12.26;100.00;97385.88;4976973;28;20089;-76
2023/06/18 03:56:59;;;;;;;10.43;7.03;;;13.20;99.90;;;12.10;100.00;97391.03;4980131;28;20129;-76
2023/06/18 03:59:27;;;;;;;12.88;7.18;;;13.20;99.90;;;12.20;100.00;97387.94;4979399;28;20058;-75
2023/06/18 04:01:54;;;;;;;9.75;7.30;;;13.20;99.90;;;12.17;100.00;97403.72;4982659;28;20500;-75
2023/06/18 04:04:23;;;;;;;11.18;7.43;;;13.20;99.90;;;12.23;100.00;97399.06;4977876;28;20780;-75
2023/06/18 04:06:50;;;;;;;11.52;7.65;;;13.20;99.90;;;12.26;100.00;97400.66;4978627;28;20054;-75
2023/06/18 04:09:17;;;;;;;11.25;7.32;;;13.30;99.90;;;12.56;100.00;97399.00;4980079;28;20116;-75
2023/06/18 04:11:46;;;;;;;9.73;7.03;;;13.50;99.90;;;12.75;100.00;97398.88;4982296;28;20043;-75
2023/06/18 04:14:13;;;;;;;8.50;6.80;;;13.60;99.90;;;12.86;100.00;97394.84;5003720;28;20065;-75
2023/06/18 04:16:40;;;;;;;13.40;6.55;;;13.70;99.90;;;13.01;100.00;97386.19;5010595;28;20164;-76
2023/06/18 04:19:07;;;;;;;10.02;7.50;;;13.80;99.90;;;12.82;100.00;97396.78;4978555;28;20065;-75
2023/06/18 04:21:35;;;;;;;11.52;7.72;;;13.90;99.90;;;12.80;100.00;97393.44;5011203;28;20054;-76
2023/06/18 04:24:03;;;;;;;11.18;7.25;;;13.80;99.90;;;12.76;100.00;97392.75;4986060;28;20100;-75
2023/06/18 04:26:30;;;;;;;9.00;7.13;;;13.80;99.90;;;12.84;100.00;97391.47;4983008;28;20056;-76
2023/06/18 04:28:57;;;;;;;11.73;6.75;;;13.80;99.90;;;12.99;100.00;97390.66;4984195;28;20097;-76
2023/06/18 04:31:25;;;;;;;10.70;7.05;;;13.80;99.90;;;13.21;100.00;97387.69;4982713;28;20134;-76
2023/06/18 04:33:52;;;;;;;12.02;7.55;;;13.80;99.90;;;13.32;100.00;97387.97;4985768;28;20161;-76
2023/06/18 04:36:19;;;;;;;12.70;7.10;;;14.00;99.90;;;13.64;100.00;97384.41;4986449;28;20050;-76
2023/06/18 04:38:46;;;;;;;8.95;6.65;;;14.20;99.90;;;13.73;100.00;97386.47;4981112;28;20046;-76
2023/06/18 04:41:13;;;;;;;11.77;6.88;;;14.40;99.90;;;13.91;100.00;97389.78;4982143;28;20046;-76
2023/06/18 04:43:40;;;;;;;10.25;6.93;;;14.50;99.90;;;13.96;100.00;97380.78;4981940;28;20086;-75
2023/06/18 04:46:07;;;;;;;10.35;6.80;;;14.60;99.90;;;13.86;100.00;97381.41;4981297;28;20061;-76
2023/06/18 04:48:35;;;;;;;10.55;7.03;;;14.70;99.90;;;13.80;100.00;97388.66;4987232;28;20086;-75
2023/06/18 04:51:03;;;;;;;12.10;7.65;;;14.80;99.90;;;13.75;100.00;97379.41;4984642;28;20595;-76
2023/06/18 04:53:30;;;;;;;14.73;8.82;;;14.80;99.90;;;13.85;100.00;97377.13;4979188;28;20055;-75
2023/06/18 04:55:59;;;;;;;12.07;8.95;;;14.70;99.90;;;13.81;100.00;97373.84;4985253;28;20043;-76
2023/06/18 04:58:27;;;;;;;9.25;7.70;;;14.70;99.90;;;13.93;100.00;97373.09;4981052;28;20443;-76
2023/06/18 05:00:54;;;;;;;10.63;8.15;;;14.70;99.90;;;13.96;100.00;97375.56;4986280;28;20085;-75
2023/06/18 05:03:23;;;;;;;10.68;8.52;;;14.80;99.90;;;13.91;100.00;97382.81;4982303;28;20058;-76
2023/06/18 05:05:50;;;;;;;10.10;8.35;;;14.80;99.90;;;13.86;100.00;97384.84;4993453;28;20128;-76
2023/06/18 05:08:18;;;;;;;11.88;8.70;;;14.80;99.90;;;14.15;100.00;97377.06;5011318;28;20062;-76
2023/06/18 05:10:45;;;;;;;9.70;8.02;;;14.90;99.90;;;14.35;100.00;97374.09;4999148;28;20059;-76
2023/06/18 05:13:12;;;;;;;11.85;7.57;;;15.00;99.90;;;14.76;100.00;97375.09;4978901;28;20049;-76
2023/06/18 05:15:39;;;;;;;9.93;8.13;;;15.10;99.90;;;14.77;100.00;97364.53;4986932;28;20077;-75
2023/06/18 05:18:06;;;;;;;10.63;7.35;;;15.10;99.90;;;14.78;100.00;97366.22;4979267;28;20126;-75
2023/06/18 05:20:33;;;;;;;10.65;8.05;;;15.20;99.90;;;14.72;100.00;97364.00;4986422;28;20150;-76
2023/06/18 05:23:01;;;;;;;10.00;7.60;;;15.30;99.90;;;15.12;100.00;97361.47;4985368;28;20527;-75
2023/06/18 05:25:29;;;;;;;9.55;7.90;;;15.50;99.90;;;15.11;100.00;97370.25;4980811;28;20500;-76
2023/06/18 05:27:56;;;;;;;9.60;7.80;;;15.70;99.90;;;15.23;100.00;97361.59;4980293;28;20047;-76
2023/06/18 05:30:24;;;;;;;11.05;8.82;;;15.70;99.90;;;15.57;100.00;97363.78;4982989;28;20055;-75
2023/06/18 05:32:51;;;;;;;11.60;8.70;;;15.70;99.90;;;15.45;100.00;97361.03;5002017;28;20105;-76
2023/06/18 05:35:18;;;;;;;10.70;8.18;;;15.70;99.90;;;15.50;100.00;97365.13;5013527;28;20055;-75
2023/06/18 05:37:45;;;;;;;8.05;7.25;;;15.90;99.90;;;15.90;100.00;97363.34;5011612;28;20051;-76
2023/06/18 05:40:13;;;;;;;10.20;7.65;;;16.00;99.90;;;15.73;100.00;97361.84;5011356;28;20049;-76
2023/06/18 05:42:40;;;;;;;10.18;8.05;;;16.10;99.90;;;15.85;100.00;97362.81;4997223;28;20061;-76
2023/06/18 05:45:08;;;;;;;7.82;7.03;;;16.40;99.90;;;16.24;100.00;97367.13;4980607;28;20050;-76
2023/06/18 05:47:35;;;;;;;10.13;7.15;;;16.60;99.90;;;16.56;100.00;97371.91;4981241;28;20448;-76
2023/06/18 05:50:02;;;;;;;8.55;7.05;;;16.90;99.90;;;16.50;100.00;97364.47;4981445;28;20537;-76
2023/06/18 05:52:29;;;;;;;9.63;7.00;;;17.10;99.90;;;16.59;100.00;97369.06;4992183;28;20074;-75
2023/06/18 05:54:56;;;;;;;9.35;7.75;;;17.30;99.90;;;16.51;100.00;97372.25;4980911;28;20050;-77
2023/06/18 05:57:23;;;;;;;12.00;8.00;;;17.40;99.90;;;16.83;100.00;97373.53;4982181;28;20050;-75
2023/06/18 05:59:50;;;;;;;11.35;7.43;;;17.50;99.90;;;16.83;100.00;97371.78;4995998;28;20050;-76
2023/06/18 06:02:18;;;;;;;8.43;7.15;;;17.60;99.90;;;16.99;100.00;97371.53;4985397;28;20479;-75
2023/06/18 06:04:45;;;;;;;7.95;7.07;;;17.70;99.90;;;17.17;100.00;97376.38;5015269;28;20463;-75
2023/06/18 06:07:13;;;;;;;8.35;6.57;;;17.80;99.90;;;17.26;100.00;97375.69;4981629;28;20125;-76
2023/06/18 06:09:40;;;;;;;7.18;6.05;;;18.00;99.90;;;17.40;100.00;97375.50;4981352;28;20601;-76
2023/06/18 06:12:08;;;;;;;7.18;6.15;;;18.10;99.90;;;17.82;100.00;97380.38;4969091;28;20050;-75
2023/06/18 06:14:35;;;;;;;8.18;6.03;;;18.30;99.90;;;18.01;100.00;97369.31;4979369;28;20114;-75
2023/06/18 06:17:02;;;;;;;8.65;6.28;;;18.50;99.90;;;18.35;100.00;97371.00;4980797;28;20081;-76
2023/06/18 06:19:30;;;;;;;11.82;6.75;;;18.70;99.90;;;18.60;100.00;97367.31;4980660;28;20114;-75
2023/06/18 06:21:57;;;;;;;10.93;6.88;;;18.90;99.90;;;18.62;100.00;97364.56;4977958;28;20582;-75
2023/06/18 06:24:24;;;;;;;8.27;6.40;;;19.10;99.90;;;18.71;100.00;97369.09;4982371;28;20113;-75
2023/06/18 06:26:52;;;;;;;8.68;6.45;;;19.20;99.90;;;19.00;100.00;97364.19;4979759;28;20120;-76
2023/06/18 06:29:19;;;;;;;8.38;6.28;;;19.20;99.90;;;19.15;100.00;97361.25;5006820;28;20129;-75
2023/06/18 06:31:46;;;;;;;8.98;6.55;;;19.20;99.90;;;19.41;100.00;97361.78;4978294;28;20091;-75
2023/06/18 06:34:13;;;;;;;10.02;6.47;;;19.20;99.90;;;19.55;100.00;97355.38;4992422;28;20423;-75
2023/06/18 06:36:42;;;;;;;10.23;6.95;;;19.40;99.90;;;19.84;100.00;97359.09;4979573;28;20085;-75
2023/06/18 06:39:09;;;;;;;8.40;6.70;;;19.50;99.90;;;19.99;100.00;97353.50;5008346;28;20181;-75
2023/06/18 06:41:36;;;;;;;11.02;6.38;;;19.80;99.90;;;20.28;100.00;97356.28;5011534;28;20058;-75
2023/06/18 06:44:04;;;;;;;9.30;6.25;;;20.20;99.90;;;20.71;100.00;97360.53;4978194;28;20054;-75
2023/06/18 06:46:31;;;;;;;8.30;5.82;;;20.60;99.90;;;20.84;100.00;97355.81;5015673;28;20058;-75
2023/06/18 06:48:58;;;;;;;6.90;5.65;;;20.80;99.90;;;21.16;100.00;97359.22;4981765;28;20096;-75
2023/06/18 06:51:25;;;;;;;6.85;5.50;;;21.10;99.90;;;21.44;100.00;97357.59;4980431;28;20082;-75
2023/06/18 06:53:52;;;;;;;6.22;5.03;;;21.40;99.90;;;21.62;100.00;97366.50;4976826;28;20050;-75
2023/06/18 06:56:20;;;;;;;6.50;5.22;;;21.50;99.90;;;21.93;100.00;97361.88;4978119;28;20129;-76
2023/06/18 06:58:47;;;;;;;6.90;4.72;;;21.80;99.90;;;22.22;100.00;97353.09;5011195;28;21076;-75
2023/06/18 07:01:14;;;;;;;7.88;5.07;;;22.00;99.90;;;22.33;100.00;97355.56;5006442;28;20062;-76
2023/06/18 07:03:42;;;;;;;6.70;5.00;;;22.40;99.90;;;22.66;100.00;97352.50;4995389;28;20161;-75
2023/06/18 07:06:12;;;;;;;8.23;5.03;;;22.50;99.50;;;22.48;100.00;97365.66;4977981;28;20057;-76
2023/06/18 07:08:39;;;;;;;6.82;4.50;;;22.60;99.30;;;22.84;100.00;97353.38;4975940;28;20062;-76
2023/06/18 07:11:07;;;;;;;8.52;4.97;;;22.80;98.70;;;23.02;100.00;97357.91;5007157;28;20057;-76
2023/06/18 07:13:35;;;;;;;7.63;4.97;;;23.10;98.30;;;23.27;100.00;97361.66;4997796;28;20051;-76
2023/06/18 07:16:02;;;;;;;9.73;4.78;;;23.40;97.70;;;23.48;100.00;97348.91;4999910;28;20051;-76
2023/06/18 07:18:29;;;;;;;8.35;4.60;;;23.60;97.60;;;23.67;100.00;97349.75;4983244;28;20105;-75
2023/06/18 07:20:57;;;;;;;6.85;4.65;;;23.80;96.60;;;23.66;100.00;97353.38;4980081;28;20046;-75
2023/06/18 07:23:24;;;;;;;7.82;4.70;;;24.00;96.40;;;23.76;100.00;97351.50;4979643;28;20153;-75
2023/06/18 07:25:51;;;;;;;6.68;4.93;;;24.10;96.10;;;24.00;100.00;97345.56;4978876;28;20081;-76
2023/06/18 07:28:19;;;;;;;6.00;4.97;;;24.20;96.00;;;23.79;100.00;97349.38;4977871;28;20801;-75
2023/06/18 07:30:46;;;;;;;7.28;4.95;;;24.40;96.50;;;24.03;100.00;97347.88;4976320;28;20054;-75
2023/06/18 07:33:13;;;;;;;7.57;5.35;;;24.40;98.50;;;24.16;100.00;97358.09;4997105;28;20078;-76
2023/06/18 07:35:40;;;;;;;7.95;5.72;;;24.60;99.90;;;24.29;100.00;97358.50;4983389;28;20519;-76
2023/06/18 07:38:07;;;;;;;7.85;6.25;;;24.70;99.90;;;24.22;100.00;97365.41;4977789;28;20526;-75
2023/06/18 07:40:37;;;;;;;8.98;5.95;;;24.70;99.90;;;24.32;100.00;97360.00;4978413;28;20079;-76
2023/06/18 07:43:04;;;;;;;9.27;6.90;;;24.70;99.90;;;24.36;100.00;97361.38;5005882;28;20050;-75
2023/06/18 07:45:32;;;;;;;7.32;6.25;;;24.80;99.90;;;24.31;100.00;97356.50;4983654;28;20058;-75
2023/06/18 07:47:59;;;;;;;10.20;6.20;;;24.90;99.90;;;24.70;100.00;97358.75;4967809;28;20553;-75
2023/06/18 07:50:26;;;;;;;8.50;5.70;;;25.00;99.90;;;24.62;100.00;97356.03;5006701;28;20469;-75
2023/06/18 07:52:53;;;;;;;8.95;6.88;;;25.10;99.90;;;25.08;100.00;97350.41;5010960;28;20041;-76
2023/06/18 07:55:21;;;;;;;6.35;5.40;;;25.30;99.90;;;25.30;100.00;97354.31;4977651;28;20106;-76
2023/06/18 07:57:48;;;;;;;9.02;5.50;;;25.50;99.90;;;25.62;100.00;97349.00;4983043;28;20473;-75
2023/06/18 08:00:15;;;;;;;7.05;5.53;;;25.70;99.10;;;25.54;100.00;97342.84;5006049;28;20113;-76
2023/06/18 08:02:43;;;;;;;8.43;4.90;;;25.80;96.30;;;26.06;100.00;97345.19;5011726;28;20089;-76
2023/06/18 08:05:10;;;;;;;6.95;4.93;;;26.10;95.80;;;26.08;100.00;97351.16;4982672;28;20515;-76
2023/06/18 08:07:37;;;;;;;6.53;5.00;;;26.20;95.80;;;26.11;100.00;97340.19;4967717;28;20046;-75
2023/06/18 08:10:06;;;;;;;6.20;4.45;;;26.10;92.50;;;25.85;100.00;97345.69;4966516;28;20100;-76
2023/06/18 08:12:33;;;;;;;18.45;4.78;;;26.30;91.90;;;26.21;100.00;97346.16;4978023;28;20467;-76
2023/06/18 08:15:01;;;;;;;6.72;4.78;;;26.40;90.80;;;25.83;100.00;97337.88;4979057;28;20129;-76
2023/06/18 08:17:27;;;;;;;5.63;3.80;;;26.40;89.70;;;26.50;99.82;97344.72;4978404;28;20043;-75
2023/06/18 08:19:55;;;;;;;5.93;3.95;;;26.60;89.80;;;26.82;100.00;97338.50;4975936;28;20061;-77
2023/06/18 08:22:22;;;;;;;6.95;4.28;;;26.80;89.40;;;26.84;99.89;97333.81;4976163;28;20077;-77
2023/06/18 08:24:49;;;;;;;7.82;4.15;;;27.10;89.20;;;26.90;100.00;97334.97;4977601;28;20498;-75
2023/06/18 08:27:17;;;;;;;6.40;4.28;;;27.30;89.90;;;26.51;94.43;97333.09;4975562;28;20782;-77
2023/06/18 08:29:44;;;;;;;6.43;4.40;;;27.30;85.30;;;27.21;93.24;97326.16;5009618;28;20162;-78
2023/06/18 08:32:13;;;;;;;5.72;3.90;;;27.30;85.70;;;27.63;93.51;97324.84;4977589;28;20660;-76
2023/06/18 08:34:45;;;;;;;5.50;3.88;;;27.60;86.00;;;27.65;90.81;97321.00;4975810;28;20039;-78
2023/06/18 08:37:13;;;;;;;8.18;3.70;;;27.70;84.40;;;27.80;84.63;97318.34;4974120;28;20134;-75
2023/06/18 08:39:40;;;;;;;6.55;3.67;;;27.90;80.80;;;27.62;82.64;97323.19;4980014;28;20816;-75
2023/06/18 08:42:08;;;;;;;4.93;3.65;;;27.90;80.70;;;27.69;86.11;97318.81;4995561;28;20423;-75
2023/06/18 08:44:36;;;;;;;5.88;3.88;;;27.80;81.00;;;28.17;83.01;97311.38;5000360;28;20054;-75
2023/06/18 08:47:04;;;;;;;7.32;4.03;;;27.60;81.00;;;28.65;82.07;97311.84;5012206;28;20074;-76
2023/06/18 08:49:33;;;;;;;4.85;3.50;;;27.80;81.70;;;29.47;83.44;97308.03;4977837;28;20046;-76
2023/06/18 08:52:07;;;;;;;8.02;4.07;;;28.30;83.50;;;29.79;76.09;97309.38;4980603;28;20050;-76
2023/06/18 08:54:36;;;;;;;5.65;3.85;;;28.80;79.80;;;29.58;75.39;97299.50;4983575;28;20471;-75
2023/06/18 08:57:17;;;;;;;7.45;3.90;;;29.10;78.50;;;29.57;75.64;97308.53;4981957;28;20089;-77
2023/06/18 08:59:45;;;;;;;6.13;3.53;;;29.40;77.90;;;29.76;70.67;97308.91;4985352;28;20062;-77
2023/06/18 09:02:13;;;;;;;8.93;3.50;;;29.90;75.10;;;29.99;67.61;97301.50;5013714;28;20050;-76
2023/06/18 09:04:41;;;;;;;6.72;3.65;;;30.10;72.20;;;30.01;65.90;97298.59;4987601;28;20096;-75
2023/06/18 09:07:08;;;;;;;8.50;3.00;;;30.30;71.50;;;30.30;65.60;97299.44;5014180;28;20060;-74
2023/06/18 09:09:37;;;;;;;5.45;3.10;;;30.60;71.00;;;30.48;62.31;97297.06;5010199;28;20060;-75
2023/06/18 09:12:06;;;;;;;3.92;2.80;;;30.20;68.20;;;30.71;62.81;97295.94;4978957;28;20129;-74
2023/06/18 09:14:33;;;;;;;3.75;2.35;;;30.50;69.90;;;31.45;60.07;97295.13;4977446;28;20050;-76
2023/06/18 09:17:00;;;;;;;8.10;2.58;;;31.20;68.40;;;31.10;61.39;97292.56;4978174;28;20057;-76
2023/06/18 09:19:28;;;;;;;4.57;2.50;;;31.90;68.10;;;31.05;59.11;97293.19;4983008;28;20133;-75
2023/06/18 09:21:55;;;;;;;5.10;2.45;;;32.00;65.10;;;30.03;60.23;97305.41;4979498;28;20137;-74
2023/06/18 09:24:22;;;;;;;3.65;2.28;;;31.40;64.40;;;30.09;57.70;97297.66;4980642;28;20138;-74
2023/06/18 09:27:01;;;;;;;4.03;2.42;;;31.10;63.70;;;30.06;59.21;97292.66;4979469;28;20109;-74
2023/06/18 09:29:30;;;;;;;4.70;2.95;;;31.50;65.00;;;30.52;61.10;97287.63;4981883;28;20049;-72
2023/06/18 09:32:05;;;;;;;10.48;2.75;;;31.70;65.60;;;30.80;59.42;97287.50;4980813;28;20125;-74
2023/06/18 09:34:32;;;;;;;4.45;2.63;;;32.20;64.90;;;31.76;57.73;97277.63;4996973;28;20095;-74
2023/06/18 09:37:00;;;;;;;4.20;2.90;;;33.00;64.00;;;31.02;58.98;97277.53;4982274;28;20998;-74
2023/06/18 09:39:27;;;;;;;3.22;2.33;;;33.10;63.50;;;31.65;57.18;97284.41;4995932;28;20136;-74
2023/06/18 09:41:55;;;;;;;4.63;2.90;;;31.50;62.00;;;30.60;58.00;97284.75;4980104;28;20055;-76
2023/06/18 09:44:23;;;;;;;5.80;2.95;;;31.80;63.40;;;30.92;61.98;97278.91;4979466;28;20061;-74
2023/06/18 09:46:58;;;;;;;3.50;2.47;;;31.90;65.50;;;31.48;56.83;97275.97;5010312;28;20050;-76
2023/06/18 09:49:29;;;;;;;5.63;2.75;;;32.70;63.00;;;32.25;54.66;97270.94;5000264;28;20050;-78
2023/06/18 09:51:55;;;;;;;3.70;2.38;;;33.20;61.70;;;32.98;55.77;97278.75;4981290;28;20051;-77
2023/06/18 09:54:37;;;;;;;5.57;2.40;;;33.70;62.60;;;33.93;54.32;97283.25;5013336;28;20146;-75
2023/06/18 09:57:06;;;;;;;4.30;2.53;;;34.20;62.70;;;32.85;54.49;97278.81;4984064;28;20042;-77
2023/06/18 09:59:33;;;;;;;4.78;2.42;;;34.40;61.20;;;33.55;54.67;97276.09;4981953;28;20058;-76
2023/06/18 10:02:00;;;;;;;3.45;2.60;;;34.50;60.90;;;33.39;55.75;97279.31;4979150;28;20051;-76
2023/06/18 10:04:28;;;;;;;4.70;2.63;;;34.50;61.90;;;33.35;53.47;97273.56;4995353;28;20676;-77
2023/06/18 10:07:03;;;;;;;4.65;2.58;;;34.90;60.50;;;33.88;52.68;97280.41;4979608;28;20105;-76
2023/06/18 10:09:39;;;;;;;3.47;2.63;;;35.00;60.20;;;33.06;54.19;97272.31;4982778;28;20050;-76
2023/06/18 10:12:08;;;;;;;5.15;3.13;;;34.90;60.00;;;33.27;53.69;97269.25;4979559;28;20137;-77
2023/06/18 10:14:35;;;;;;;4.32;2.55;;;34.80;60.30;;;33.60;52.72;97273.63;4979278;28;20054;-76
2023/06/18 10:17:34;;;;;;;4.03;2.90;;;34.70;60.20;;;33.23;51.03;97268.09;5010410;28;20057;-76